Time;durP1;ratioP1;P1;durP2;ratioP2;P2;SDS_P1;SDS_P2;PMS_P1;PMS_P2;Temp;Humidity;BMP_temperature;BMP_pressure;BME280_temperature;BME280_humidity;BME280_pressure;Samples;Min_cycle;Max_cycle;Signal;HPM_P1;HPM_P2
2021/04/29 00:00:42;;;;;;;4.82;2.95;;;;;;;;;;5115900;28;20197;-42
2021/04/29 00:03:08;;;;;;;3.20;2.70;;;;;;;;;;5114655;28;20188;-42
2021/04/29 00:05:34;;;;;;;5.53;2.53;;;;;;;;;;5115747;28;20453;-42
2021/04/29 00:08:01;;;;;;;4.47;2.60;;;;;;;;;;5110777;28;20283;-42
2021/04/29 00:10:29;;;;;;;3.10;2.30;;;;;;;;;;5111491;28;20173;-42
2021/04/29 00:12:55;;;;;;;2.92;2.42;;;;;;;;;;5102210;28;20390;-43
2021/04/29 00:15:21;;;;;;;3.53;2.80;;;;;;;;;;5099045;28;20600;-42
2021/04/29 00:17:47;;;;;;;3.55;2.80;;;;;;;;;;5115966;28;20591;-42
2021/04/29 00:20:15;;;;;;;2.90;2.60;;;;;;;;;;5112910;28;20277;-42
2021/04/29 00:22:41;;;;;;;3.22;2.80;;;;;;;;;;5115617;28;20169;-43
2021/04/29 00:25:07;;;;;;;3.05;2.30;;;;;;;;;;5115904;28;20165;-42
2021/04/29 00:27:33;;;;;;;4.00;2.60;;;;;;;;;;5115891;28;20205;-42
2021/04/29 00:29:59;;;;;;;2.65;2.45;;;;;;;;;;5115390;28;20188;-42
2021/04/29 00:32:25;;;;;;;3.13;2.50;;;;;;;;;;5115458;28;20161;-42
2021/04/29 00:34:51;;;;;;;2.42;2.22;;;;;;;;;;5115504;28;20583;-42
2021/04/29 00:37:17;;;;;;;3.00;2.58;;;;;;;;;;5108773;28;20177;-42
2021/04/29 00:39:43;;;;;;;2.70;2.50;;;;;;;;;;5115476;28;20556;-43
2021/04/29 00:42:09;;;;;;;3.13;2.30;;;;;;;;;;5115027;28;20189;-42
2021/04/29 00:44:35;;;;;;;3.03;2.72;;;;;;;;;;5115507;28;20165;-42
2021/04/29 00:47:01;;;;;;;2.58;2.38;;;;;;;;;;5112579;28;20207;-42
2021/04/29 00:49:28;;;;;;;2.83;2.50;;;;;;;;;;5115396;28;20567;-42
2021/04/29 00:51:54;;;;;;;2.50;2.30;;;;;;;;;;5114477;28;20634;-42
2021/04/29 00:54:19;;;;;;;3.00;2.42;;;;;;;;;;5095105;28;20170;-42
2021/04/29 00:56:46;;;;;;;4.03;2.45;;;;;;;;;;5109332;28;20173;-42
2021/04/29 00:59:12;;;;;;;2.63;2.42;;;;;;;;;;5115276;28;20183;-42
2021/04/29 01:01:38;;;;;;;3.13;2.60;;;;;;;;;;5114615;28;20235;-42
2021/04/29 01:04:23;;;;;;;2.75;2.30;;;;;;;;;;5115190;28;20189;-42
2021/04/29 01:06:53;;;;;;;2.70;2.50;;;;;;;;;;5112832;28;20204;-42
2021/04/29 01:09:25;;;;;;;2.63;2.38;;;;;;;;;;5113923;28;20253;-42
2021/04/29 01:12:00;;;;;;;2.78;2.47;;;;;;;;;;5112361;28;20181;-42
2021/04/29 01:14:26;;;;;;;3.15;2.40;;;;;;;;;;5115495;28;20526;-42
2021/04/29 01:16:52;;;;;;;2.50;2.30;;;;;;;;;;5114405;28;20184;-42
2021/04/29 01:19:19;;;;;;;2.30;2.08;;;;;;;;;;5114181;28;20193;-42
2021/04/29 01:21:46;;;;;;;2.30;2.10;;;;;;;;;;5114665;28;20196;-42
2021/04/29 01:24:14;;;;;;;2.72;2.33;;;;;;;;;;5113507;28;20178;-42
2021/04/29 01:26:49;;;;;;;2.53;2.33;;;;;;;;;;5114832;28;20193;-42
2021/04/29 01:29:20;;;;;;;2.20;2.00;;;;;;;;;;5115004;28;20248;-42
2021/04/29 01:31:47;;;;;;;2.55;2.30;;;;;;;;;;5114020;28;20173;-42
2021/04/29 01:34:14;;;;;;;2.22;2.03;;;;;;;;;;5114346;28;20168;-42
2021/04/29 01:36:41;;;;;;;2.40;2.20;;;;;;;;;;5114552;28;20180;-42
2021/04/29 01:39:11;;;;;;;2.20;2.10;;;;;;;;;;5097085;28;20180;-42
2021/04/29 01:41:38;;;;;;;2.17;2.05;;;;;;;;;;5103484;28;20223;-42
2021/04/29 01:44:06;;;;;;;2.53;2.33;;;;;;;;;;5104412;28;20181;-43
2021/04/29 01:46:33;;;;;;;2.40;2.20;;;;;;;;;;5114487;28;20207;-42
2021/04/29 01:48:59;;;;;;;3.30;2.30;;;;;;;;;;5109642;28;20180;-42
2021/04/29 01:51:25;;;;;;;1.95;1.85;;;;;;;;;;5113656;28;20649;-42
2021/04/29 01:53:51;;;;;;;2.30;2.10;;;;;;;;;;5114999;28;20176;-42
2021/04/29 01:56:17;;;;;;;2.60;2.40;;;;;;;;;;5114982;28;20174;-43
2021/04/29 01:58:43;;;;;;;2.40;2.20;;;;;;;;;;5113686;28;20173;-42
2021/04/29 02:01:09;;;;;;;2.50;2.25;;;;;;;;;;5113676;28;20617;-42
2021/04/29 02:03:35;;;;;;;2.28;2.05;;;;;;;;;;5114838;28;20174;-42
2021/04/29 02:06:01;;;;;;;2.78;2.20;;;;;;;;;;5114015;28;20260;-42
2021/04/29 02:08:27;;;;;;;2.30;2.10;;;;;;;;;;5113580;28;20187;-42
2021/04/29 02:10:53;;;;;;;2.45;2.25;;;;;;;;;;5106622;28;20433;-42
2021/04/29 02:13:20;;;;;;;2.13;1.95;;;;;;;;;;5104824;28;20244;-42
2021/04/29 02:15:54;;;;;;;2.15;1.95;;;;;;;;;;5114295;28;20180;-42
2021/04/29 02:18:21;;;;;;;2.47;2.00;;;;;;;;;;5114423;28;20180;-42
2021/04/29 02:20:48;;;;;;;1.90;1.77;;;;;;;;;;5113856;28;20201;-42
2021/04/29 02:23:16;;;;;;;2.20;2.00;;;;;;;;;;5114530;28;20184;-42
2021/04/29 02:25:42;;;;;;;2.50;2.30;;;;;;;;;;5103535;28;20598;-42
2021/04/29 02:28:08;;;;;;;2.58;2.30;;;;;;;;;;5114300;28;20211;-42
2021/04/29 02:30:35;;;;;;;2.88;2.00;;;;;;;;;;5114167;28;20612;-42
2021/04/29 02:33:01;;;;;;;2.30;1.98;;;;;;;;;;5114370;28;20177;-42
2021/04/29 02:35:28;;;;;;;2.55;2.10;;;;;;;;;;5114323;28;20177;-42
2021/04/29 02:37:55;;;;;;;2.15;1.95;;;;;;;;;;5114814;28;20174;-42
2021/04/29 02:40:22;;;;;;;2.25;2.05;;;;;;;;;;5099240;28;20669;-42
2021/04/29 02:42:48;;;;;;;2.33;2.13;;;;;;;;;;5117605;28;20268;-42
2021/04/29 02:45:15;;;;;;;2.28;2.08;;;;;;;;;;5117661;28;20628;-42
2021/04/29 02:47:44;;;;;;;2.28;2.08;;;;;;;;;;5117961;28;20337;-42
2021/04/29 02:50:14;;;;;;;2.35;2.15;;;;;;;;;;5117372;28;20185;-42
2021/04/29 02:52:40;;;;;;;1.95;1.80;;;;;;;;;;5105626;28;20188;-42
2021/04/29 02:55:09;;;;;;;2.63;2.25;;;;;;;;;;5117192;28;20177;-42
2021/04/29 02:57:35;;;;;;;2.22;2.00;;;;;;;;;;5117771;28;20185;-42
2021/04/29 03:00:02;;;;;;;2.70;2.50;;;;;;;;;;5117443;28;20192;-42
2021/04/29 03:02:27;;;;;;;2.35;2.15;;;;;;;;;;5117342;28;20231;-42
2021/04/29 03:04:53;;;;;;;2.22;2.03;;;;;;;;;;5117597;28;20185;-42
2021/04/29 03:07:20;;;;;;;2.28;2.08;;;;;;;;;;5114107;28;20213;-42
2021/04/29 03:09:46;;;;;;;2.35;2.15;;;;;;;;;;5117310;28;20189;-42
2021/04/29 03:12:12;;;;;;;2.50;2.30;;;;;;;;;;5117155;28;20165;-42
2021/04/29 03:14:38;;;;;;;2.30;2.08;;;;;;;;;;5117343;28;20161;-42
2021/04/29 03:17:04;;;;;;;1.80;1.70;;;;;;;;;;5117251;28;20217;-42
2021/04/29 03:19:30;;;;;;;2.05;1.85;;;;;;;;;;5115125;28;20564;-42
2021/04/29 03:21:56;;;;;;;2.10;2.00;;;;;;;;;;5105719;28;20196;-43
2021/04/29 03:24:22;;;;;;;2.08;1.98;;;;;;;;;;5111399;28;20182;-42
2021/04/29 03:26:48;;;;;;;2.05;1.90;;;;;;;;;;5111111;28;20250;-42
2021/04/29 03:29:14;;;;;;;1.70;1.60;;;;;;;;;;5116941;28;20598;-42
2021/04/29 03:31:40;;;;;;;2.22;2.10;;;;;;;;;;5116527;28;20173;-42
2021/04/29 03:34:06;;;;;;;2.75;2.00;;;;;;;;;;5103619;28;20238;-42
2021/04/29 03:36:32;;;;;;;2.10;1.90;;;;;;;;;;5116320;28;20181;-42
2021/04/29 03:38:58;;;;;;;2.20;2.00;;;;;;;;;;5117154;28;20165;-42
2021/04/29 03:41:24;;;;;;;2.00;1.90;;;;;;;;;;5116418;28;20548;-42
2021/04/29 03:43:50;;;;;;;1.95;1.83;;;;;;;;;;5116879;28;20208;-42
2021/04/29 03:46:16;;;;;;;2.17;1.98;;;;;;;;;;5116466;28;20181;-42
2021/04/29 03:48:42;;;;;;;2.65;2.05;;;;;;;;;;5116243;28;20173;-42
2021/04/29 03:51:08;;;;;;;2.47;2.05;;;;;;;;;;5115526;28;20493;-42
2021/04/29 03:53:35;;;;;;;1.90;1.80;;;;;;;;;;5115875;28;20187;-42
2021/04/29 03:56:01;;;;;;;2.90;1.90;;;;;;;;;;5116876;28;20173;-42
2021/04/29 03:58:27;;;;;;;1.85;1.75;;;;;;;;;;5116581;28;20468;-42
2021/04/29 04:00:53;;;;;;;3.22;2.22;;;;;;;;;;5107805;28;20202;-42
2021/04/29 04:03:19;;;;;;;2.38;2.13;;;;;;;;;;5115203;28;20195;-42
2021/04/29 04:05:45;;;;;;;2.75;2.10;;;;;;;;;;5115841;28;20177;-42
2021/04/29 04:08:11;;;;;;;1.95;1.85;;;;;;;;;;5116156;28;20208;-42
2021/04/29 04:10:37;;;;;;;2.38;2.00;;;;;;;;;;5116178;28;20165;-42
2021/04/29 04:13:03;;;;;;;3.25;2.15;;;;;;;;;;5116028;28;20169;-42
2021/04/29 04:15:29;;;;;;;2.55;1.92;;;;;;;;;;5115528;28;20220;-42
2021/04/29 04:17:55;;;;;;;2.17;2.00;;;;;;;;;;5116016;28;20177;-42
2021/04/29 04:20:22;;;;;;;2.00;1.70;;;;;;;;;;5115405;28;20185;-42
2021/04/29 04:22:48;;;;;;;2.05;1.95;;;;;;;;;;5115890;28;20188;-42
2021/04/29 04:25:14;;;;;;;3.67;2.00;;;;;;;;;;5116062;28;20181;-42
2021/04/29 04:27:40;;;;;;;8.38;3.25;;;;;;;;;;5115370;28;20204;-43
2021/04/29 04:30:07;;;;;;;22.00;6.25;;;;;;;;;;5115780;28;20230;-42
2021/04/29 04:32:32;;;;;;;30.27;7.03;;;;;;;;;;5115493;28;20248;-42
2021/04/29 04:35:00;;;;;;;22.80;6.30;;;;;;;;;;5115229;28;20513;-42
2021/04/29 04:37:26;;;;;;;26.20;6.95;;;;;;;;;;5115711;28;20256;-42
2021/04/29 04:39:52;;;;;;;25.13;6.40;;;;;;;;;;5115850;28;20275;-42
2021/04/29 04:42:18;;;;;;;16.02;5.47;;;;;;;;;;5105154;28;20185;-42
2021/04/29 04:44:44;;;;;;;14.73;4.70;;;;;;;;;;5110706;28;20255;-43
2021/04/29 04:47:10;;;;;;;18.88;4.60;;;;;;;;;;5115132;28;20291;-42
2021/04/29 04:49:36;;;;;;;11.65;4.65;;;;;;;;;;5115274;28;20181;-42
2021/04/29 04:52:02;;;;;;;13.77;5.15;;;;;;;;;;5114795;28;20540;-42
2021/04/29 04:54:28;;;;;;;13.50;5.00;;;;;;;;;;5115444;28;20181;-42
2021/04/29 04:56:54;;;;;;;10.68;4.18;;;;;;;;;;5114615;28;20223;-42
2021/04/29 04:59:20;;;;;;;11.18;3.90;;;;;;;;;;5095742;28;20238;-42
2021/04/29 05:01:47;;;;;;;11.77;4.28;;;;;;;;;;5111728;28;20188;-42
2021/04/29 05:04:14;;;;;;;12.25;4.32;;;;;;;;;;5114627;28;20584;-42
2021/04/29 05:06:40;;;;;;;14.27;4.07;;;;;;;;;;5110625;28;20189;-42
2021/04/29 05:09:06;;;;;;;8.38;4.25;;;;;;;;;;5115517;28;20180;-42
2021/04/29 05:11:32;;;;;;;7.20;3.40;;;;;;;;;;5095585;28;20688;-42
2021/04/29 05:13:59;;;;;;;9.85;4.05;;;;;;;;;;5115076;28;20563;-42
2021/04/29 05:16:25;;;;;;;8.73;4.13;;;;;;;;;;5115090;28;20192;-42
2021/04/29 05:18:51;;;;;;;7.65;3.53;;;;;;;;;;5114746;28;20177;-42
2021/04/29 05:21:17;;;;;;;10.05;3.83;;;;;;;;;;5109580;28;20198;-42
2021/04/29 05:23:46;;;;;;;9.30;3.80;;;;;;;;;;5112925;27;20246;-42
2021/04/29 05:26:12;;;;;;;7.78;3.63;;;;;;;;;;5111861;28;20165;-43
2021/04/29 05:28:38;;;;;;;9.38;3.92;;;;;;;;;;5114944;28;20188;-42
2021/04/29 05:31:04;;;;;;;9.45;3.92;;;;;;;;;;5111127;28;20169;-42
2021/04/29 05:33:30;;;;;;;8.38;3.70;;;;;;;;;;5113525;28;20587;-42
2021/04/29 05:35:56;;;;;;;8.57;3.47;;;;;;;;;;5107184;28;20185;-42
2021/04/29 05:38:22;;;;;;;7.10;3.38;;;;;;;;;;5114936;28;20181;-42
2021/04/29 05:40:48;;;;;;;8.85;3.35;;;;;;;;;;5112871;28;20177;-42
2021/04/29 05:43:14;;;;;;;6.15;3.33;;;;;;;;;;5114291;28;20490;-42
2021/04/29 05:45:41;;;;;;;5.50;3.00;;;;;;;;;;5114543;28;20185;-42
2021/04/29 05:48:07;;;;;;;5.10;3.33;;;;;;;;;;5106066;28;20206;-42
2021/04/29 05:50:33;;;;;;;7.93;3.38;;;;;;;;;;5113831;28;20170;-42
2021/04/29 05:52:59;;;;;;;5.47;3.17;;;;;;;;;;5096996;28;20197;-42
2021/04/29 05:55:25;;;;;;;6.68;3.30;;;;;;;;;;5114895;28;20162;-42
2021/04/29 05:57:54;;;;;;;5.57;2.80;;;;;;;;;;5102329;28;20230;-42
2021/04/29 06:00:21;;;;;;;8.13;3.13;;;;;;;;;;5101758;28;20509;-42
2021/04/29 06:02:47;;;;;;;7.45;3.17;;;;;;;;;;5110097;28;20238;-42
2021/04/29 06:05:13;;;;;;;8.82;3.65;;;;;;;;;;5113971;28;20216;-42
2021/04/29 06:07:39;;;;;;;5.88;3.15;;;;;;;;;;5113893;28;20244;-42
2021/04/29 06:10:05;;;;;;;6.65;2.83;;;;;;;;;;5094502;28;20188;-42
2021/04/29 06:12:31;;;;;;;5.28;2.72;;;;;;;;;;5096590;28;20181;-42
2021/04/29 06:14:57;;;;;;;5.05;3.60;;;;;;;;;;5114514;28;20178;-43
2021/04/29 06:17:23;;;;;;;3.78;2.72;;;;;;;;;;5114589;28;20177;-42
2021/04/29 06:19:49;;;;;;;5.05;3.35;;;;;;;;;;5117634;28;20176;-42
2021/04/29 06:22:15;;;;;;;5.93;3.38;;;;;;;;;;5117954;28;20267;-43
2021/04/29 06:24:41;;;;;;;4.45;2.53;;;;;;;;;;5116477;28;20173;-42
2021/04/29 06:27:07;;;;;;;4.40;2.60;;;;;;;;;;5111971;28;20200;-42
2021/04/29 06:29:34;;;;;;;7.57;3.25;;;;;;;;;;5116191;28;20173;-42
2021/04/29 06:32:00;;;;;;;3.97;2.95;;;;;;;;;;5115340;28;20261;-42
2021/04/29 06:34:26;;;;;;;6.22;3.10;;;;;;;;;;5115691;28;20450;-42
2021/04/29 06:36:52;;;;;;;4.75;3.00;;;;;;;;;;5097385;28;20272;-42
2021/04/29 06:39:19;;;;;;;4.50;3.10;;;;;;;;;;5115816;28;20204;-43
2021/04/29 06:41:46;;;;;;;3.85;2.85;;;;;;;;;;5114491;28;20442;-42
2021/04/29 06:44:12;;;;;;;6.30;3.22;;;;;;;;;;5115491;28;20169;-42
2021/04/29 06:46:38;;;;;;;4.63;2.67;;;;;;;;;;5116071;28;20215;-42
2021/04/29 06:49:06;;;;;;;5.82;3.00;;;;;;;;;;5117683;28;20276;-42
2021/04/29 06:51:32;;;;;;;4.65;3.00;;;;;;;;;;5117309;28;20206;-42
2021/04/29 06:53:58;;;;;;;6.10;2.83;;;;;;;;;;5117576;28;20180;-42
2021/04/29 06:56:24;;;;;;;5.80;2.80;;;;;;;;;;5113709;28;20457;-42
2021/04/29 06:58:50;;;;;;;6.18;2.60;;;;;;;;;;5116468;28;20173;-42
2021/04/29 07:01:16;;;;;;;4.13;2.92;;;;;;;;;;5117214;28;20177;-42
2021/04/29 07:03:42;;;;;;;4.30;2.70;;;;;;;;;;5117520;28;20252;-42
2021/04/29 07:06:08;;;;;;;4.43;2.58;;;;;;;;;;5116822;28;20205;-42
2021/04/29 07:08:34;;;;;;;4.20;2.80;;;;;;;;;;5116429;28;20263;-42
2021/04/29 07:11:00;;;;;;;4.20;2.50;;;;;;;;;;5117077;28;20166;-42
2021/04/29 07:13:26;;;;;;;4.32;2.45;;;;;;;;;;5116945;28;20197;-42
2021/04/29 07:15:52;;;;;;;6.03;3.13;;;;;;;;;;5099745;28;20191;-42
2021/04/29 07:18:19;;;;;;;4.30;2.88;;;;;;;;;;5116419;28;20555;-42
2021/04/29 07:20:45;;;;;;;9.15;3.13;;;;;;;;;;5115163;28;20215;-42
2021/04/29 07:23:11;;;;;;;8.90;2.90;;;;;;;;;;5115742;28;20181;-42
2021/04/29 07:25:38;;;;;;;9.45;3.22;;;;;;;;;;5116045;28;20226;-42
2021/04/29 07:28:05;;;;;;;3.75;2.88;;;;;;;;;;5102121;28;20804;-42
2021/04/29 07:30:31;;;;;;;6.00;2.85;;;;;;;;;;5103643;28;20216;-42
2021/04/29 07:32:58;;;;;;;3.30;2.53;;;;;;;;;;5114475;28;20176;-42
2021/04/29 07:35:24;;;;;;;6.10;2.70;;;;;;;;;;5097670;28;20201;-42
2021/04/29 07:37:50;;;;;;;4.95;2.65;;;;;;;;;;5113206;28;20251;-42
2021/04/29 07:40:16;;;;;;;3.08;2.45;;;;;;;;;;5116315;28;20180;-42
2021/04/29 07:42:42;;;;;;;3.80;2.17;;;;;;;;;;5115906;28;20184;-42
2021/04/29 07:45:09;;;;;;;3.72;2.40;;;;;;;;;;5101949;28;20181;-42
2021/04/29 07:47:35;;;;;;;4.72;2.45;;;;;;;;;;5100130;28;20209;-42
2021/04/29 07:50:01;;;;;;;4.03;2.63;;;;;;;;;;5116495;28;20183;-42
2021/04/29 07:52:27;;;;;;;2.47;2.25;;;;;;;;;;5108346;28;20192;-42
2021/04/29 07:54:53;;;;;;;3.80;2.38;;;;;;;;;;5115232;28;20177;-42
2021/04/29 07:57:20;;;;;;;5.13;2.28;;;;;;;;;;5115881;28;20176;-42
2021/04/29 07:59:46;;;;;;;4.25;2.85;;;;;;;;;;5115280;28;20475;-42
2021/04/29 08:02:13;;;;;;;3.38;2.38;;;;;;;;;;5115355;28;20539;-42
2021/04/29 08:04:39;;;;;;;3.60;2.40;;;;;;;;;;5098041;28;20181;-42
2021/04/29 08:07:05;;;;;;;4.88;2.25;;;;;;;;;;5115629;28;20704;-42
2021/04/29 08:09:31;;;;;;;3.17;2.40;;;;;;;;;;5100913;28;20217;-42
2021/04/29 08:11:57;;;;;;;4.43;2.38;;;;;;;;;;5108106;28;20205;-42
2021/04/29 08:14:23;;;;;;;2.53;2.08;;;;;;;;;;5115950;28;20592;-42
2021/04/29 08:16:50;;;;;;;4.13;2.40;;;;;;;;;;5116085;28;20177;-42
2021/04/29 08:19:16;;;;;;;3.13;2.10;;;;;;;;;;5115916;28;20253;-42
2021/04/29 08:21:42;;;;;;;3.33;2.35;;;;;;;;;;5114744;28;20526;-43
2021/04/29 08:24:08;;;;;;;2.65;1.83;;;;;;;;;;5113053;28;20586;-42
2021/04/29 08:26:34;;;;;;;3.03;2.03;;;;;;;;;;5096315;28;20201;-42
2021/04/29 08:29:02;;;;;;;4.78;2.25;;;;;;;;;;5115757;28;20242;-42
2021/04/29 08:31:28;;;;;;;2.42;2.03;;;;;;;;;;5110001;28;20168;-42
2021/04/29 08:33:54;;;;;;;3.75;2.20;;;;;;;;;;5119171;27;20543;-42
2021/04/29 08:36:21;;;;;;;2.97;2.15;;;;;;;;;;5114620;28;20251;-43
2021/04/29 08:38:47;;;;;;;2.13;1.92;;;;;;;;;;5112196;28;20177;-42
2021/04/29 08:41:13;;;;;;;2.10;1.90;;;;;;;;;;5111515;28;20198;-42
2021/04/29 08:43:39;;;;;;;2.67;2.10;;;;;;;;;;5114507;28;20200;-42
2021/04/29 08:46:06;;;;;;;5.10;2.03;;;;;;;;;;5112477;28;20552;-42
2021/04/29 08:48:32;;;;;;;3.00;2.03;;;;;;;;;;5114739;28;20227;-42
2021/04/29 08:50:58;;;;;;;2.70;2.05;;;;;;;;;;5112703;28;20216;-42
2021/04/29 08:53:25;;;;;;;3.63;2.10;;;;;;;;;;5114698;28;20204;-42
2021/04/29 08:55:51;;;;;;;2.90;1.80;;;;;;;;;;5114704;28;20603;-42
2021/04/29 08:58:19;;;;;;;5.43;1.92;;;;;;;;;;5114162;28;20224;-42
2021/04/29 09:00:45;;;;;;;2.53;2.03;;;;;;;;;;5096648;28;20226;-42
2021/04/29 09:03:11;;;;;;;2.20;1.98;;;;;;;;;;5114886;28;20264;-42
2021/04/29 09:05:37;;;;;;;3.22;1.88;;;;;;;;;;5114575;28;20562;-42
2021/04/29 09:08:10;;;;;;;3.20;2.00;;;;;;;;;;5114562;28;20205;-42
2021/04/29 09:10:44;;;;;;;4.15;2.10;;;;;;;;;;5096761;28;20462;-42
2021/04/29 09:13:16;;;;;;;3.13;1.88;;;;;;;;;;5105671;28;20169;-42
2021/04/29 09:15:42;;;;;;;2.85;1.60;;;;;;;;;;5111097;28;20238;-43
2021/04/29 09:18:09;;;;;;;3.22;1.83;;;;;;;;;;5115012;28;20222;-42
2021/04/29 09:20:35;;;;;;;3.08;1.70;;;;;;;;;;5113839;28;20208;-42
2021/04/29 09:23:05;;;;;;;2.65;1.90;;;;;;;;;;5114770;28;20241;-42
2021/04/29 09:25:32;;;;;;;2.45;1.65;;;;;;;;;;5114828;28;20637;-43
2021/04/29 09:27:58;;;;;;;2.47;2.05;;;;;;;;;;5114087;28;20220;-42
2021/04/29 09:30:24;;;;;;;1.67;1.58;;;;;;;;;;5103735;28;20177;-42
2021/04/29 09:32:50;;;;;;;2.10;1.77;;;;;;;;;;5112579;28;20259;-42
2021/04/29 09:35:18;;;;;;;1.95;1.70;;;;;;;;;;5114557;28;20260;-42
2021/04/29 09:37:44;;;;;;;1.98;1.70;;;;;;;;;;5113032;28;20194;-42
2021/04/29 09:40:19;;;;;;;1.88;1.67;;;;;;;;;;5110361;28;20178;-42
2021/04/29 09:42:46;;;;;;;2.35;1.60;;;;;;;;;;5112400;28;20173;-43
2021/04/29 09:45:30;;;;;;;2.42;1.73;;;;;;;;;;5106751;28;20268;-43
2021/04/29 09:48:02;;;;;;;1.83;1.60;;;;;;;;;;5117860;28;20230;-42
2021/04/29 09:50:30;;;;;;;3.50;1.80;;;;;;;;;;5118523;28;20547;-42
2021/04/29 09:53:00;;;;;;;2.40;1.77;;;;;;;;;;5118380;28;20177;-42
2021/04/29 09:55:27;;;;;;;2.70;1.45;;;;;;;;;;5119067;28;20181;-42
2021/04/29 09:58:09;;;;;;;3.72;1.50;;;;;;;;;;5118526;28;20165;-42
2021/04/29 10:00:36;;;;;;;1.65;1.20;;;;;;;;;;5099771;28;20215;-42
2021/04/29 10:03:02;;;;;;;1.80;1.70;;;;;;;;;;5111436;28;20560;-42
2021/04/29 10:05:29;;;;;;;1.60;1.50;;;;;;;;;;5098288;28;20288;-42
2021/04/29 10:07:55;;;;;;;1.50;1.40;;;;;;;;;;5117969;28;20203;-42
2021/04/29 10:10:22;;;;;;;1.85;1.70;;;;;;;;;;5118236;28;20188;-42
2021/04/29 10:12:49;;;;;;;2.13;1.55;;;;;;;;;;5116255;28;20169;-42
2021/04/29 10:15:16;;;;;;;2.47;1.50;;;;;;;;;;5118520;28;20197;-42
2021/04/29 10:17:42;;;;;;;1.50;1.40;;;;;;;;;;5112844;28;20177;-42
2021/04/29 10:20:13;;;;;;;2.05;1.52;;;;;;;;;;5099360;28;20178;-42
2021/04/29 10:22:42;;;;;;;1.83;1.58;;;;;;;;;;5117291;28;20487;-42
2021/04/29 10:25:09;;;;;;;2.97;1.88;;;;;;;;;;5117811;28;20533;-42
2021/04/29 10:27:35;;;;;;;3.45;1.77;;;;;;;;;;5118105;28;20279;-42
2021/04/29 10:30:08;;;;;;;3.25;2.00;;;;;;;;;;5117817;28;20184;-42
2021/04/29 10:32:35;;;;;;;30.27;7.25;;;;;;;;;;5115157;28;20203;-42
2021/04/29 10:35:13;;;;;;;63.15;12.38;;;;;;;;;;5117377;28;20673;-42
2021/04/29 10:37:39;;;;;;;55.25;12.88;;;;;;;;;;5110539;28;20181;-42
2021/04/29 10:40:07;;;;;;;48.78;11.38;;;;;;;;;;5114774;28;20192;-42
2021/04/29 10:42:43;;;;;;;34.30;9.23;;;;;;;;;;5117152;28;20184;-42
2021/04/29 10:45:11;;;;;;;34.17;7.55;;;;;;;;;;5117415;28;20263;-42
2021/04/29 10:47:38;;;;;;;31.10;8.13;;;;;;;;;;5117336;28;20219;-42
2021/04/29 10:50:06;;;;;;;27.90;8.48;;;;;;;;;;5113588;28;20212;-43
2021/04/29 10:52:33;;;;;;;33.70;7.47;;;;;;;;;;5116565;28;20555;-42
2021/04/29 10:55:00;;;;;;;30.83;7.07;;;;;;;;;;5116821;28;20282;-42
2021/04/29 10:57:26;;;;;;;26.77;7.47;;;;;;;;;;5115687;28;20232;-42
2021/04/29 10:59:56;;;;;;;28.02;7.30;;;;;;;;;;5117801;28;20548;-42
2021/04/29 11:02:26;;;;;;;25.45;6.88;;;;;;;;;;5116927;28;20169;-42
2021/04/29 11:04:52;;;;;;;23.85;7.07;;;;;;;;;;5117242;28;20266;-42
2021/04/29 11:07:20;;;;;;;26.10;6.43;;;;;;;;;;5106159;28;20211;-42
2021/04/29 11:10:05;;;;;;;14.05;5.70;;;;;;;;;;5116842;28;20169;-42
2021/04/29 11:12:47;;;;;;;16.17;5.45;;;;;;;;;;5116508;28;20187;-42
2021/04/29 11:15:32;;;;;;;16.83;5.00;;;;;;;;;;5115562;28;20300;-42
2021/04/29 11:18:04;;;;;;;11.88;4.82;;;;;;;;;;5108278;27;20280;-42
2021/04/29 11:20:49;;;;;;;13.18;5.10;;;;;;;;;;5131897;27;20199;-42
2021/04/29 11:23:16;;;;;;;14.55;5.05;;;;;;;;;;5114923;28;20181;-42
2021/04/29 11:25:43;;;;;;;14.45;5.05;;;;;;;;;;5116392;28;20840;-42
2021/04/29 11:28:09;;;;;;;13.55;4.97;;;;;;;;;;5106972;28;20217;-42
2021/04/29 11:30:39;;;;;;;12.43;4.25;;;;;;;;;;5100390;28;20267;-42
2021/04/29 11:33:06;;;;;;;12.52;4.07;;;;;;;;;;5116000;28;20173;-42
2021/04/29 11:35:34;;;;;;;14.30;5.18;;;;;;;;;;5105947;28;20180;-42
2021/04/29 11:38:00;;;;;;;10.07;4.05;;;;;;;;;;5114676;28;20241;-42
2021/04/29 11:40:28;;;;;;;10.68;3.80;;;;;;;;;;5116772;28;20768;-42
2021/04/29 11:42:56;;;;;;;12.40;4.40;;;;;;;;;;5105491;28;20545;-42
2021/04/29 11:45:29;;;;;;;10.82;4.60;;;;;;;;;;5106372;28;20177;-42
2021/04/29 11:48:03;;;;;;;10.32;3.70;;;;;;;;;;5116327;28;20196;-43
2021/04/29 11:50:30;;;;;;;11.75;4.47;;;;;;;;;;5104343;28;20653;-42
2021/04/29 11:53:17;;;;;;;11.25;3.85;;;;;;;;;;5095860;28;20263;-42
2021/04/29 11:55:44;;;;;;;10.65;4.07;;;;;;;;;;5097513;28;20256;-42
2021/04/29 11:58:11;;;;;;;9.82;3.58;;;;;;;;;;5096214;28;20178;-42
2021/04/29 12:00:38;;;;;;;11.20;3.97;;;;;;;;;;5096110;28;20177;-42
2021/04/29 12:03:08;;;;;;;7.97;3.40;;;;;;;;;;5096071;28;20539;-42
2021/04/29 12:05:38;;;;;;;12.63;4.38;;;;;;;;;;5096220;28;20235;-42
2021/04/29 12:08:04;;;;;;;8.38;3.72;;;;;;;;;;5078430;28;20445;-42
2021/04/29 12:10:57;;;;;;;7.07;3.33;;;;;;;;;;5096861;28;20196;-42
2021/04/29 12:13:35;;;;;;;7.28;3.58;;;;;;;;;;5105169;28;20193;-42
2021/04/29 12:16:05;;;;;;;6.82;3.42;;;;;;;;;;5116495;28;20265;-42
2021/04/29 12:18:31;;;;;;;8.88;3.60;;;;;;;;;;5116620;28;20165;-42
2021/04/29 12:20:57;;;;;;;8.63;3.83;;;;;;;;;;5114177;28;20200;-42
2021/04/29 12:23:23;;;;;;;7.05;3.80;;;;;;;;;;5116218;28;20177;-42
2021/04/29 12:26:18;;;;;;;6.50;3.17;;;;;;;;;;5116027;28;20536;-42
2021/04/29 12:28:45;;;;;;;7.65;3.22;;;;;;;;;;5094715;28;20515;-42
2021/04/29 12:31:18;;;;;;;6.22;3.63;;;;;;;;;;5106590;28;20264;-42
2021/04/29 12:33:51;;;;;;;7.35;3.33;;;;;;;;;;5095861;28;20178;-42
2021/04/29 12:36:17;;;;;;;9.43;3.53;;;;;;;;;;5095393;28;20596;-42
2021/04/29 12:38:43;;;;;;;7.55;3.50;;;;;;;;;;5095625;28;20197;-42
2021/04/29 12:41:09;;;;;;;5.53;3.17;;;;;;;;;;5094947;28;20204;-42
2021/04/29 12:43:35;;;;;;;5.63;3.53;;;;;;;;;;5095609;28;20250;-42
2021/04/29 12:46:03;;;;;;;8.40;3.45;;;;;;;;;;5112901;28;20181;-42
2021/04/29 12:48:32;;;;;;;5.63;3.03;;;;;;;;;;5115840;28;20193;-42
2021/04/29 12:51:18;;;;;;;4.95;3.13;;;;;;;;;;5114838;28;20218;-42
2021/04/29 12:53:56;;;;;;;7.00;3.38;;;;;;;;;;5115577;28;20481;-42
2021/04/29 12:56:32;;;;;;;6.78;3.00;;;;;;;;;;5098056;28;20189;-42
2021/04/29 12:59:09;;;;;;;5.63;2.72;;;;;;;;;;5115674;28;20514;-42
2021/04/29 13:01:34;;;;;;;4.80;2.47;;;;;;;;;;5104423;28;20227;-42
2021/04/29 13:04:00;;;;;;;4.75;2.67;;;;;;;;;;5095177;28;20169;-42
2021/04/29 13:06:26;;;;;;;6.45;2.83;;;;;;;;;;5095048;28;20538;-42
2021/04/29 13:08:54;;;;;;;5.57;2.53;;;;;;;;;;5097442;28;20173;-42
2021/04/29 13:11:29;;;;;;;4.97;2.70;;;;;;;;;;5114238;28;20170;-42
2021/04/29 13:14:02;;;;;;;5.15;2.40;;;;;;;;;;5110141;28;20191;-42
2021/04/29 13:16:29;;;;;;;7.70;2.72;;;;;;;;;;5108244;28;20169;-42
2021/04/29 13:18:56;;;;;;;4.45;2.70;;;;;;;;;;5113586;28;20177;-42
2021/04/29 13:21:22;;;;;;;3.20;2.33;;;;;;;;;;5113018;28;20235;-42
2021/04/29 13:23:48;;;;;;;3.72;2.10;;;;;;;;;;5114526;28;20173;-42
2021/04/29 13:26:14;;;;;;;14.20;2.67;;;;;;;;;;5114987;28;20490;-42
2021/04/29 13:28:41;;;;;;;4.22;2.28;;;;;;;;;;5114485;28;20201;-42
2021/04/29 13:31:07;;;;;;;3.90;2.53;;;;;;;;;;5113116;28;20185;-42
2021/04/29 13:33:33;;;;;;;8.85;2.60;;;;;;;;;;5112494;28;20233;-42
2021/04/29 13:36:04;;;;;;;7.35;2.28;;;;;;;;;;5113969;28;20540;-42
2021/04/29 13:38:30;;;;;;;6.68;2.60;;;;;;;;;;5094697;28;20174;-52
2021/04/29 13:40:56;;;;;;;8.52;2.30;;;;;;;;;;5107553;28;20463;-46
2021/04/29 13:43:22;;;;;;;12.00;2.83;;;;;;;;;;5113937;28;20540;-46
2021/04/29 13:45:48;;;;;;;15.63;3.33;;;;;;;;;;5113919;28;20177;-47
2021/04/29 13:48:14;;;;;;;11.10;3.42;;;;;;;;;;5113157;28;20201;-47
2021/04/29 13:50:40;;;;;;;8.18;2.90;;;;;;;;;;5111992;28;20285;-47
2021/04/29 13:53:07;;;;;;;11.70;2.05;;;;;;;;;;5114724;28;20192;-47
2021/04/29 13:55:33;;;;;;;7.50;2.58;;;;;;;;;;5114498;28;20274;-47
2021/04/29 13:57:59;;;;;;;3.25;2.25;;;;;;;;;;5114677;28;20210;-47
2021/04/29 14:00:26;;;;;;;8.93;2.40;;;;;;;;;;5114276;28;20185;-47
2021/04/29 14:02:52;;;;;;;6.97;2.90;;;;;;;;;;5111122;28;20568;-47
2021/04/29 14:05:18;;;;;;;9.60;2.15;;;;;;;;;;5112901;28;20209;-47
2021/04/29 14:07:44;;;;;;;7.25;2.05;;;;;;;;;;5096246;28;20284;-47
2021/04/29 14:10:11;;;;;;;6.43;2.25;;;;;;;;;;5114410;28;20256;-47
2021/04/29 14:12:37;;;;;;;6.63;2.17;;;;;;;;;;5113888;28;20189;-47
2021/04/29 14:15:04;;;;;;;4.78;1.80;;;;;;;;;;5114745;28;20541;-47
2021/04/29 14:17:30;;;;;;;5.43;2.15;;;;;;;;;;5114351;28;20192;-47
2021/04/29 14:19:56;;;;;;;6.63;2.42;;;;;;;;;;5113559;28;20181;-47
2021/04/29 14:22:22;;;;;;;5.78;2.25;;;;;;;;;;5107550;28;20284;-47
2021/04/29 14:24:48;;;;;;;7.53;1.70;;;;;;;;;;5100875;28;20182;-47
2021/04/29 14:27:15;;;;;;;7.63;2.10;;;;;;;;;;5105086;28;20258;-47
2021/04/29 14:29:41;;;;;;;8.00;2.30;;;;;;;;;;5114404;28;20161;-47
2021/04/29 14:32:07;;;;;;;5.93;2.10;;;;;;;;;;5114681;28;20225;-47
2021/04/29 14:34:33;;;;;;;8.07;1.95;;;;;;;;;;5118109;28;20248;-47
2021/04/29 14:37:01;;;;;;;6.95;1.95;;;;;;;;;;5117787;28;20257;-47
2021/04/29 14:39:27;;;;;;;3.15;1.80;;;;;;;;;;5117646;28;20444;-47
2021/04/29 14:41:53;;;;;;;5.55;2.08;;;;;;;;;;5117708;28;20451;-47